sensor_id;sensor_type;location;lat;lon;timestamp;P1;durP1;ratioP1;P2;durP2;ratioP2
3427;SDS011;1727;42.624;23.406;2022-07-05T00:01:36;7.90;;;4.10;;
3427;SDS011;1727;42.624;23.406;2022-07-05T00:04:02;4.73;;;3.70;;
3427;SDS011;1727;42.624;23.406;2022-07-05T00:06:29;12.53;;;3.90;;
3427;SDS011;1727;42.624;23.406;2022-07-05T00:08:56;6.30;;;4.03;;
3427;SDS011;1727;42.624;23.406;2022-07-05T00:11:23;9.00;;;5.03;;
3427;SDS011;1727;42.624;23.406;2022-07-05T00:13:50;6.23;;;4.10;;
3427;SDS011;1727;42.624;23.406;2022-07-05T00:16:17;4.43;;;4.13;;
3427;SDS011;1727;42.624;23.406;2022-07-05T00:18:45;4.67;;;3.70;;
3427;SDS011;1727;42.624;23.406;2022-07-05T00:21:12;8.90;;;4.57;;
3427;SDS011;1727;42.624;23.406;2022-07-05T00:23:39;4.83;;;4.30;;
3427;SDS011;1727;42.624;23.406;2022-07-05T00:26:06;9.50;;;4.00;;
3427;SDS011;1727;42.624;23.406;2022-07-05T00:28:33;4.53;;;4.10;;
3427;SDS011;1727;42.624;23.406;2022-07-05T00:31:00;6.93;;;4.30;;
3427;SDS011;1727;42.624;23.406;2022-07-05T00:33:27;4.30;;;3.63;;
3427;SDS011;1727;42.624;23.406;2022-07-05T00:35:55;18.27;;;3.80;;
3427;SDS011;1727;42.624;23.406;2022-07-05T00:38:22;6.10;;;3.90;;
3427;SDS011;1727;42.624;23.406;2022-07-05T00:40:49;5.87;;;4.60;;
3427;SDS011;1727;42.624;23.406;2022-07-05T00:43:15;4.23;;;3.90;;
3427;SDS011;1727;42.624;23.406;2022-07-05T00:45:42;9.73;;;4.07;;
3427;SDS011;1727;42.624;23.406;2022-07-05T00:48:09;8.03;;;4.10;;
3427;SDS011;1727;42.624;23.406;2022-07-05T00:50:36;4.50;;;4.10;;
3427;SDS011;1727;42.624;23.406;2022-07-05T00:53:05;7.80;;;3.80;;
3427;SDS011;1727;42.624;23.406;2022-07-05T00:55:32;7.30;;;3.87;;
3427;SDS011;1727;42.624;23.406;2022-07-05T00:57:59;6.67;;;3.83;;
3427;SDS011;1727;42.624;23.406;2022-07-05T01:00:27;6.07;;;3.20;;
3427;SDS011;1727;42.624;23.406;2022-07-05T01:02:54;7.57;;;3.20;;
3427;SDS011;1727;42.624;23.406;2022-07-05T01:05:21;7.17;;;3.87;;
3427;SDS011;1727;42.624;23.406;2022-07-05T01:07:48;6.43;;;3.60;;
3427;SDS011;1727;42.624;23.406;2022-07-05T01:10:16;3.90;;;3.50;;
3427;SDS011;1727;42.624;23.406;2022-07-05T01:12:43;4.80;;;3.60;;
3427;SDS011;1727;42.624;23.406;2022-07-05T01:15:11;3.73;;;3.43;;
3427;SDS011;1727;42.624;23.406;2022-07-05T01:17:38;4.70;;;3.40;;
3427;SDS011;1727;42.624;23.406;2022-07-05T01:20:06;3.53;;;3.23;;
3427;SDS011;1727;42.624;23.406;2022-07-05T01:25:19;10.87;;;4.03;;
3427;SDS011;1727;42.624;23.406;2022-07-05T01:27:47;3.00;;;2.80;;
3427;SDS011;1727;42.624;23.406;2022-07-05T01:30:14;5.20;;;3.33;;
3427;SDS011;1727;42.624;23.406;2022-07-05T01:32:42;3.50;;;3.20;;
3427;SDS011;1727;42.624;23.406;2022-07-05T01:35:09;4.30;;;3.90;;
3427;SDS011;1727;42.624;23.406;2022-07-05T01:37:37;4.53;;;3.10;;
3427;SDS011;1727;42.624;23.406;2022-07-05T01:40:06;5.00;;;3.87;;
3427;SDS011;1727;42.624;23.406;2022-07-05T01:42:33;5.90;;;3.73;;
3427;SDS011;1727;42.624;23.406;2022-07-05T01:45:00;8.80;;;3.80;;
3427;SDS011;1727;42.624;23.406;2022-07-05T01:47:27;3.83;;;3.43;;
3427;SDS011;1727;42.624;23.406;2022-07-05T01:49:54;3.93;;;3.23;;
3427;SDS011;1727;42.624;23.406;2022-07-05T01:52:25;3.57;;;3.33;;
3427;SDS011;1727;42.624;23.406;2022-07-05T01:54:56;8.87;;;3.63;;
3427;SDS011;1727;42.624;23.406;2022-07-05T01:57:24;3.43;;;3.10;;
3427;SDS011;1727;42.624;23.406;2022-07-05T01:59:51;4.00;;;3.47;;
3427;SDS011;1727;42.624;23.406;2022-07-05T02:02:18;3.40;;;3.20;;
3427;SDS011;1727;42.624;23.406;2022-07-05T02:04:45;5.60;;;4.23;;
3427;SDS011;1727;42.624;23.406;2022-07-05T02:07:11;3.70;;;3.40;;
3427;SDS011;1727;42.624;23.406;2022-07-05T02:09:38;5.10;;;3.80;;
3427;SDS011;1727;42.624;23.406;2022-07-05T02:12:05;6.90;;;3.77;;
3427;SDS011;1727;42.624;23.406;2022-07-05T02:14:34;3.83;;;3.33;;
3427;SDS011;1727;42.624;23.406;2022-07-05T02:17:01;6.60;;;3.70;;
3427;SDS011;1727;42.624;23.406;2022-07-05T02:19:28;3.80;;;3.23;;
3427;SDS011;1727;42.624;23.406;2022-07-05T02:21:55;4.43;;;3.53;;
3427;SDS011;1727;42.624;23.406;2022-07-05T02:24:22;7.00;;;3.97;;
3427;SDS011;1727;42.624;23.406;2022-07-05T02:26:49;3.73;;;3.30;;
3427;SDS011;1727;42.624;23.406;2022-07-05T02:29:16;8.13;;;3.90;;
3427;SDS011;1727;42.624;23.406;2022-07-05T02:31:45;4.77;;;4.10;;
3427;SDS011;1727;42.624;23.406;2022-07-05T02:34:12;4.33;;;3.57;;
3427;SDS011;1727;42.624;23.406;2022-07-05T02:36:39;4.40;;;4.00;;
3427;SDS011;1727;42.624;23.406;2022-07-05T02:39:06;5.77;;;4.30;;
3427;SDS011;1727;42.624;23.406;2022-07-05T02:41:33;8.77;;;4.20;;
3427;SDS011;1727;42.624;23.406;2022-07-05T02:44:00;4.97;;;3.73;;
3427;SDS011;1727;42.624;23.406;2022-07-05T02:46:26;5.10;;;3.70;;
3427;SDS011;1727;42.624;23.406;2022-07-05T02:48:55;7.40;;;4.30;;
3427;SDS011;1727;42.624;23.406;2022-07-05T02:51:22;9.77;;;3.80;;
3427;SDS011;1727;42.624;23.406;2022-07-05T02:53:48;11.23;;;4.70;;
3427;SDS011;1727;42.624;23.406;2022-07-05T02:56:15;10.07;;;4.33;;
3427;SDS011;1727;42.624;23.406;2022-07-05T02:58:42;9.80;;;4.43;;
3427;SDS011;1727;42.624;23.406;2022-07-05T03:01:09;4.23;;;3.80;;
3427;SDS011;1727;42.624;23.406;2022-07-05T03:03:36;5.57;;;3.90;;
3427;SDS011;1727;42.624;23.406;2022-07-05T03:06:04;6.20;;;3.53;;
3427;SDS011;1727;42.624;23.406;2022-07-05T03:08:31;4.07;;;3.70;;
3427;SDS011;1727;42.624;23.406;2022-07-05T03:10:58;6.40;;;2.93;;
3427;SDS011;1727;42.624;23.406;2022-07-05T03:13:25;5.00;;;4.17;;
3427;SDS011;1727;42.624;23.406;2022-07-05T03:15:52;4.13;;;3.83;;
3427;SDS011;1727;42.624;23.406;2022-07-05T03:18:19;5.20;;;4.70;;
3427;SDS011;1727;42.624;23.406;2022-07-05T03:20:46;4.60;;;3.30;;
3427;SDS011;1727;42.624;23.406;2022-07-05T03:23:14;8.40;;;3.73;;
3427;SDS011;1727;42.624;23.406;2022-07-05T03:25:41;3.80;;;3.10;;
3427;SDS011;1727;42.624;23.406;2022-07-05T03:28:08;3.60;;;3.40;;
3427;SDS011;1727;42.624;23.406;2022-07-05T03:30:38;4.50;;;4.10;;
3427;SDS011;1727;42.624;23.406;2022-07-05T03:33:08;3.70;;;3.40;;
3427;SDS011;1727;42.624;23.406;2022-07-05T03:35:55;8.23;;;4.07;;
3427;SDS011;1727;42.624;23.406;2022-07-05T03:38:23;8.43;;;3.90;;
3427;SDS011;1727;42.624;23.406;2022-07-05T03:40:50;8.03;;;3.90;;
3427;SDS011;1727;42.624;23.406;2022-07-05T03:43:17;7.23;;;4.20;;
3427;SDS011;1727;42.624;23.406;2022-07-05T03:52:27;6.80;;;4.30;;
3427;SDS011;1727;42.624;23.406;2022-07-05T03:54:55;6.10;;;4.47;;
3427;SDS011;1727;42.624;23.406;2022-07-05T03:57:22;5.27;;;4.10;;
3427;SDS011;1727;42.624;23.406;2022-07-05T03:59:49;6.60;;;5.03;;
3427;SDS011;1727;42.624;23.406;2022-07-05T04:02:16;6.60;;;4.30;;
3427;SDS011;1727;42.624;23.406;2022-07-05T04:04:42;11.70;;;5.27;;
3427;SDS011;1727;42.624;23.406;2022-07-05T04:07:09;6.50;;;4.90;;
3427;SDS011;1727;42.624;23.406;2022-07-05T04:09:36;4.43;;;4.13;;
3427;SDS011;1727;42.624;23.406;2022-07-05T04:12:05;11.03;;;4.30;;
3427;SDS011;1727;42.624;23.406;2022-07-05T04:14:33;7.00;;;5.00;;
3427;SDS011;1727;42.624;23.406;2022-07-05T04:17:00;4.03;;;3.73;;
3427;SDS011;1727;42.624;23.406;2022-07-05T04:19:27;7.63;;;4.10;;
3427;SDS011;1727;42.624;23.406;2022-07-05T04:21:54;4.70;;;4.30;;
3427;SDS011;1727;42.624;23.406;2022-07-05T04:24:20;14.73;;;3.83;;
3427;SDS011;1727;42.624;23.406;2022-07-05T04:27:07;4.23;;;3.93;;
3427;SDS011;1727;42.624;23.406;2022-07-05T04:29:34;6.60;;;4.40;;
3427;SDS011;1727;42.624;23.406;2022-07-05T04:32:01;6.33;;;4.10;;
3427;SDS011;1727;42.624;23.406;2022-07-05T04:34:28;12.23;;;4.10;;
3427;SDS011;1727;42.624;23.406;2022-07-05T04:36:54;5.10;;;4.00;;
3427;SDS011;1727;42.624;23.406;2022-07-05T04:39:21;6.20;;;4.27;;
3427;SDS011;1727;42.624;23.406;2022-07-05T04:41:48;7.20;;;4.83;;
3427;SDS011;1727;42.624;23.406;2022-07-05T04:44:17;6.23;;;4.00;;
3427;SDS011;1727;42.624;23.406;2022-07-05T04:46:44;5.07;;;3.97;;
3427;SDS011;1727;42.624;23.406;2022-07-05T04:49:10;4.13;;;3.77;;
3427;SDS011;1727;42.624;23.406;2022-07-05T04:51:37;8.50;;;4.00;;
3427;SDS011;1727;42.624;23.406;2022-07-05T05:04:20;5.20;;;3.93;;
3427;SDS011;1727;42.624;23.406;2022-07-05T05:06:50;6.33;;;3.90;;
3427;SDS011;1727;42.624;23.406;2022-07-05T05:09:17;7.57;;;4.17;;
3427;SDS011;1727;42.624;23.406;2022-07-05T05:11:43;4.80;;;4.40;;
3427;SDS011;1727;42.624;23.406;2022-07-05T05:14:10;4.93;;;4.27;;
3427;SDS011;1727;42.624;23.406;2022-07-05T05:16:37;4.83;;;4.47;;
3427;SDS011;1727;42.624;23.406;2022-07-05T05:19:04;5.10;;;4.50;;
3427;SDS011;1727;42.624;23.406;2022-07-05T05:21:33;8.60;;;4.60;;
3427;SDS011;1727;42.624;23.406;2022-07-05T05:24:00;6.27;;;4.67;;
3427;SDS011;1727;42.624;23.406;2022-07-05T05:26:27;8.17;;;4.70;;
3427;SDS011;1727;42.624;23.406;2022-07-05T05:28:54;8.10;;;5.13;;
3427;SDS011;1727;42.624;23.406;2022-07-05T05:31:21;14.70;;;5.50;;
3427;SDS011;1727;42.624;23.406;2022-07-05T05:33:48;15.13;;;5.80;;
3427;SDS011;1727;42.624;23.406;2022-07-05T05:36:15;6.53;;;5.10;;
3427;SDS011;1727;42.624;23.406;2022-07-05T05:38:43;7.33;;;5.30;;
3427;SDS011;1727;42.624;23.406;2022-07-05T05:41:10;6.20;;;4.30;;
3427;SDS011;1727;42.624;23.406;2022-07-05T05:43:37;10.87;;;5.40;;
3427;SDS011;1727;42.624;23.406;2022-07-05T05:46:04;5.87;;;5.30;;
3427;SDS011;1727;42.624;23.406;2022-07-05T05:48:31;8.00;;;5.93;;
3427;SDS011;1727;42.624;23.406;2022-07-05T05:50:57;14.10;;;5.00;;
3427;SDS011;1727;42.624;23.406;2022-07-05T05:53:26;7.40;;;5.40;;
3427;SDS011;1727;42.624;23.406;2022-07-05T05:55:54;5.67;;;5.10;;
3427;SDS011;1727;42.624;23.406;2022-07-05T05:58:21;4.60;;;4.30;;
3427;SDS011;1727;42.624;23.406;2022-07-05T06:00:49;5.13;;;4.73;;
3427;SDS011;1727;42.624;23.406;2022-07-05T06:03:17;8.73;;;5.00;;
3427;SDS011;1727;42.624;23.406;2022-07-05T06:05:45;6.63;;;4.37;;
3427;SDS011;1727;42.624;23.406;2022-07-05T06:08:12;7.83;;;6.47;;
3427;SDS011;1727;42.624;23.406;2022-07-05T06:10:39;9.43;;;5.10;;
3427;SDS011;1727;42.624;23.406;2022-07-05T06:13:08;8.87;;;5.50;;
3427;SDS011;1727;42.624;23.406;2022-07-05T06:15:36;6.90;;;5.43;;
3427;SDS011;1727;42.624;23.406;2022-07-05T06:18:04;5.53;;;5.13;;
3427;SDS011;1727;42.624;23.406;2022-07-05T06:20:32;5.90;;;5.40;;
3427;SDS011;1727;42.624;23.406;2022-07-05T06:23:00;6.70;;;5.97;;
3427;SDS011;1727;42.624;23.406;2022-07-05T06:25:28;6.53;;;5.50;;
3427;SDS011;1727;42.624;23.406;2022-07-05T06:27:56;12.63;;;6.20;;
3427;SDS011;1727;42.624;23.406;2022-07-05T06:30:26;10.93;;;5.63;;
3427;SDS011;1727;42.624;23.406;2022-07-05T06:32:54;14.43;;;6.33;;
3427;SDS011;1727;42.624;23.406;2022-07-05T06:35:22;11.87;;;6.73;;
3427;SDS011;1727;42.624;23.406;2022-07-05T06:37:50;12.17;;;7.13;;
3427;SDS011;1727;42.624;23.406;2022-07-05T06:40:18;10.90;;;6.43;;
3427;SDS011;1727;42.624;23.406;2022-07-05T06:42:47;10.50;;;5.70;;
3427;SDS011;1727;42.624;23.406;2022-07-05T06:45:15;16.70;;;6.43;;
3427;SDS011;1727;42.624;23.406;2022-07-05T06:47:44;8.40;;;6.40;;
3427;SDS011;1727;42.624;23.406;2022-07-05T06:50:11;7.53;;;6.60;;
3427;SDS011;1727;42.624;23.406;2022-07-05T06:52:38;10.37;;;6.57;;
3427;SDS011;1727;42.624;23.406;2022-07-05T06:55:06;10.00;;;5.80;;
3427;SDS011;1727;42.624;23.406;2022-07-05T06:57:33;14.00;;;6.87;;
3427;SDS011;1727;42.624;23.406;2022-07-05T07:00:00;7.97;;;7.27;;
3427;SDS011;1727;42.624;23.406;2022-07-05T07:02:28;8.77;;;6.40;;
3427;SDS011;1727;42.624;23.406;2022-07-05T07:04:56;11.17;;;6.60;;
3427;SDS011;1727;42.624;23.406;2022-07-05T07:07:23;12.80;;;6.37;;
3427;SDS011;1727;42.624;23.406;2022-07-05T07:10:07;13.83;;;6.80;;
3427;SDS011;1727;42.624;23.406;2022-07-05T07:12:35;10.30;;;6.73;;
3427;SDS011;1727;42.624;23.406;2022-07-05T07:15:02;11.53;;;7.20;;
3427;SDS011;1727;42.624;23.406;2022-07-05T07:17:29;6.63;;;5.90;;
3427;SDS011;1727;42.624;23.406;2022-07-05T07:19:58;16.60;;;6.07;;
3427;SDS011;1727;42.624;23.406;2022-07-05T07:22:25;7.57;;;6.20;;
3427;SDS011;1727;42.624;23.406;2022-07-05T07:24:52;8.13;;;6.67;;
3427;SDS011;1727;42.624;23.406;2022-07-05T07:27:19;21.13;;;7.47;;
3427;SDS011;1727;42.624;23.406;2022-07-05T07:29:47;13.20;;;7.10;;
3427;SDS011;1727;42.624;23.406;2022-07-05T07:32:13;8.83;;;6.80;;
3427;SDS011;1727;42.624;23.406;2022-07-05T07:34:40;12.30;;;7.30;;
3427;SDS011;1727;42.624;23.406;2022-07-05T07:37:09;14.97;;;6.67;;
3427;SDS011;1727;42.624;23.406;2022-07-05T07:39:38;9.33;;;6.70;;
3427;SDS011;1727;42.624;23.406;2022-07-05T07:42:06;8.97;;;5.30;;
3427;SDS011;1727;42.624;23.406;2022-07-05T07:44:33;9.80;;;6.80;;
3427;SDS011;1727;42.624;23.406;2022-07-05T07:47:00;6.63;;;5.93;;
3427;SDS011;1727;42.624;23.406;2022-07-05T07:49:27;7.63;;;6.60;;
3427;SDS011;1727;42.624;23.406;2022-07-05T07:51:54;13.10;;;6.30;;
3427;SDS011;1727;42.624;23.406;2022-07-05T07:54:22;14.33;;;6.27;;
3427;SDS011;1727;42.624;23.406;2022-07-05T07:56:49;10.53;;;6.10;;
3427;SDS011;1727;42.624;23.406;2022-07-05T07:59:16;9.87;;;6.63;;
3427;SDS011;1727;42.624;23.406;2022-07-05T08:01:43;7.37;;;6.33;;
3427;SDS011;1727;42.624;23.406;2022-07-05T08:04:10;12.00;;;7.07;;
3427;SDS011;1727;42.624;23.406;2022-07-05T08:06:38;12.13;;;6.80;;
3427;SDS011;1727;42.624;23.406;2022-07-05T08:09:05;15.27;;;6.70;;
3427;SDS011;1727;42.624;23.406;2022-07-05T08:11:33;7.10;;;6.37;;
3427;SDS011;1727;42.624;23.406;2022-07-05T08:14:00;10.50;;;6.37;;
3427;SDS011;1727;42.624;23.406;2022-07-05T08:16:27;12.67;;;6.50;;
3427;SDS011;1727;42.624;23.406;2022-07-05T08:18:54;9.80;;;6.80;;
3427;SDS011;1727;42.624;23.406;2022-07-05T08:21:38;10.37;;;5.90;;
3427;SDS011;1727;42.624;23.406;2022-07-05T08:24:05;11.43;;;7.10;;
3427;SDS011;1727;42.624;23.406;2022-07-05T08:26:36;11.13;;;6.60;;
3427;SDS011;1727;42.624;23.406;2022-07-05T08:29:04;14.43;;;6.63;;
3427;SDS011;1727;42.624;23.406;2022-07-05T08:31:34;8.17;;;6.33;;
3427;SDS011;1727;42.624;23.406;2022-07-05T08:34:02;6.73;;;5.93;;
3427;SDS011;1727;42.624;23.406;2022-07-05T08:36:29;10.20;;;6.53;;
3427;SDS011;1727;42.624;23.406;2022-07-05T08:38:56;8.77;;;5.93;;
3427;SDS011;1727;42.624;23.406;2022-07-05T08:41:23;11.27;;;6.50;;
3427;SDS011;1727;42.624;23.406;2022-07-05T08:43:52;10.70;;;7.33;;
3427;SDS011;1727;42.624;23.406;2022-07-05T08:46:21;14.90;;;7.43;;
3427;SDS011;1727;42.624;23.406;2022-07-05T08:48:51;7.60;;;6.57;;
3427;SDS011;1727;42.624;23.406;2022-07-05T08:51:19;7.50;;;6.70;;
3427;SDS011;1727;42.624;23.406;2022-07-05T08:53:48;10.37;;;6.03;;
3427;SDS011;1727;42.624;23.406;2022-07-05T08:56:16;11.33;;;6.47;;
3427;SDS011;1727;42.624;23.406;2022-07-05T08:58:43;12.77;;;7.27;;
3427;SDS011;1727;42.624;23.406;2022-07-05T09:01:12;9.40;;;6.17;;
3427;SDS011;1727;42.624;23.406;2022-07-05T09:03:42;8.40;;;6.50;;
3427;SDS011;1727;42.624;23.406;2022-07-05T09:06:12;19.17;;;6.83;;
3427;SDS011;1727;42.624;23.406;2022-07-05T09:08:42;10.57;;;6.93;;
3427;SDS011;1727;42.624;23.406;2022-07-05T09:11:11;10.73;;;6.70;;
3427;SDS011;1727;42.624;23.406;2022-07-05T09:13:40;8.43;;;6.57;;
3427;SDS011;1727;42.624;23.406;2022-07-05T09:16:08;7.60;;;6.90;;
3427;SDS011;1727;42.624;23.406;2022-07-05T09:18:41;9.93;;;6.17;;
3427;SDS011;1727;42.624;23.406;2022-07-05T09:21:15;12.20;;;6.27;;
3427;SDS011;1727;42.624;23.406;2022-07-05T09:23:44;9.13;;;7.10;;
3427;SDS011;1727;42.624;23.406;2022-07-05T09:26:14;10.30;;;7.57;;
3427;SDS011;1727;42.624;23.406;2022-07-05T09:28:53;13.13;;;8.33;;
3427;SDS011;1727;42.624;23.406;2022-07-05T09:31:28;13.93;;;7.87;;
3427;SDS011;1727;42.624;23.406;2022-07-05T09:34:07;8.53;;;7.63;;
3427;SDS011;1727;42.624;23.406;2022-07-05T09:36:47;20.00;;;7.43;;
3427;SDS011;1727;42.624;23.406;2022-07-05T09:39:18;11.93;;;8.83;;
3427;SDS011;1727;42.624;23.406;2022-07-05T09:42:10;7.80;;;6.80;;
3427;SDS011;1727;42.624;23.406;2022-07-05T09:44:38;8.20;;;7.50;;
3427;SDS011;1727;42.624;23.406;2022-07-05T09:47:08;10.83;;;6.83;;
3427;SDS011;1727;42.624;23.406;2022-07-05T09:49:41;25.67;;;7.60;;
3427;SDS011;1727;42.624;23.406;2022-07-05T09:52:10;11.57;;;6.10;;
3427;SDS011;1727;42.624;23.406;2022-07-05T09:54:37;10.10;;;6.80;;
3427;SDS011;1727;42.624;23.406;2022-07-05T09:57:04;8.17;;;6.30;;
3427;SDS011;1727;42.624;23.406;2022-07-05T09:59:31;11.40;;;7.13;;
3427;SDS011;1727;42.624;23.406;2022-07-05T10:01:59;6.83;;;6.13;;
3427;SDS011;1727;42.624;23.406;2022-07-05T10:04:25;9.20;;;6.20;;
3427;SDS011;1727;42.624;23.406;2022-07-05T10:06:54;8.50;;;6.37;;
3427;SDS011;1727;42.624;23.406;2022-07-05T10:09:21;9.33;;;6.40;;
3427;SDS011;1727;42.624;23.406;2022-07-05T10:11:50;9.43;;;7.23;;
3427;SDS011;1727;42.624;23.406;2022-07-05T10:14:18;10.40;;;6.77;;
3427;SDS011;1727;42.624;23.406;2022-07-05T10:16:56;6.50;;;5.90;;
3427;SDS011;1727;42.624;23.406;2022-07-05T10:19:28;5.77;;;5.37;;
3427;SDS011;1727;42.624;23.406;2022-07-05T10:22:00;9.33;;;6.63;;
3427;SDS011;1727;42.624;23.406;2022-07-05T10:24:31;7.63;;;6.23;;
3427;SDS011;1727;42.624;23.406;2022-07-05T10:27:01;10.60;;;6.80;;
3427;SDS011;1727;42.624;23.406;2022-07-05T10:29:32;8.40;;;6.50;;
3427;SDS011;1727;42.624;23.406;2022-07-05T10:32:01;9.13;;;6.30;;
3427;SDS011;1727;42.624;23.406;2022-07-05T10:34:29;7.10;;;6.40;;
3427;SDS011;1727;42.624;23.406;2022-07-05T10:37:00;7.40;;;6.70;;
3427;SDS011;1727;42.624;23.406;2022-07-05T10:39:27;6.63;;;6.03;;
3427;SDS011;1727;42.624;23.406;2022-07-05T10:41:54;7.97;;;6.67;;
3427;SDS011;1727;42.624;23.406;2022-07-05T10:44:27;6.87;;;6.37;;
3427;SDS011;1727;42.624;23.406;2022-07-05T10:47:07;7.90;;;6.30;;
3427;SDS011;1727;42.624;23.406;2022-07-05T10:49:37;7.90;;;6.53;;
3427;SDS011;1727;42.624;23.406;2022-07-05T10:52:17;11.13;;;6.80;;
3427;SDS011;1727;42.624;23.406;2022-07-05T10:57:44;10.57;;;6.83;;
3427;SDS011;1727;42.624;23.406;2022-07-05T11:07:00;8.00;;;7.30;;
3427;SDS011;1727;42.624;23.406;2022-07-05T11:09:29;11.07;;;7.10;;
3427;SDS011;1727;42.624;23.406;2022-07-05T11:12:06;9.27;;;6.97;;
3427;SDS011;1727;42.624;23.406;2022-07-05T11:14:36;15.23;;;6.90;;
3427;SDS011;1727;42.624;23.406;2022-07-05T11:17:10;9.83;;;7.70;;
3427;SDS011;1727;42.624;23.406;2022-07-05T11:19:59;7.60;;;6.87;;
3427;SDS011;1727;42.624;23.406;2022-07-05T11:22:40;9.20;;;7.17;;
3427;SDS011;1727;42.624;23.406;2022-07-05T11:25:27;13.17;;;7.77;;
3427;SDS011;1727;42.624;23.406;2022-07-05T11:27:59;8.83;;;7.30;;
3427;SDS011;1727;42.624;23.406;2022-07-05T11:30:27;7.80;;;6.90;;
3427;SDS011;1727;42.624;23.406;2022-07-05T11:32:54;7.67;;;7.03;;
3427;SDS011;1727;42.624;23.406;2022-07-05T11:35:28;10.77;;;7.20;;
3427;SDS011;1727;42.624;23.406;2022-07-05T11:37:59;9.53;;;7.33;;
3427;SDS011;1727;42.624;23.406;2022-07-05T11:40:30;7.47;;;6.87;;
3427;SDS011;1727;42.624;23.406;2022-07-05T11:42:59;14.03;;;6.97;;
3427;SDS011;1727;42.624;23.406;2022-07-05T11:45:27;7.53;;;6.83;;
3427;SDS011;1727;42.624;23.406;2022-07-05T11:47:56;7.80;;;7.10;;
3427;SDS011;1727;42.624;23.406;2022-07-05T11:50:27;8.27;;;7.43;;
3427;SDS011;1727;42.624;23.406;2022-07-05T11:52:56;8.17;;;7.27;;
3427;SDS011;1727;42.624;23.406;2022-07-05T11:55:24;8.60;;;7.13;;
3427;SDS011;1727;42.624;23.406;2022-07-05T11:57:54;8.10;;;6.93;;
3427;SDS011;1727;42.624;23.406;2022-07-05T12:00:25;7.53;;;6.87;;
3427;SDS011;1727;42.624;23.406;2022-07-05T12:02:53;9.90;;;6.60;;
3427;SDS011;1727;42.624;23.406;2022-07-05T12:05:20;9.87;;;7.70;;
3427;SDS011;1727;42.624;23.406;2022-07-05T12:07:50;9.63;;;6.80;;
3427;SDS011;1727;42.624;23.406;2022-07-05T12:10:18;9.77;;;7.43;;
3427;SDS011;1727;42.624;23.406;2022-07-05T12:13:05;10.63;;;7.07;;
3427;SDS011;1727;42.624;23.406;2022-07-05T12:18:54;7.43;;;6.83;;
3427;SDS011;1727;42.624;23.406;2022-07-05T12:21:25;6.70;;;6.10;;
3427;SDS011;1727;42.624;23.406;2022-07-05T12:23:52;8.30;;;7.50;;
3427;SDS011;1727;42.624;23.406;2022-07-05T12:26:19;10.07;;;6.40;;
3427;SDS011;1727;42.624;23.406;2022-07-05T12:28:49;7.10;;;6.57;;
3427;SDS011;1727;42.624;23.406;2022-07-05T12:31:17;11.60;;;7.40;;
3427;SDS011;1727;42.624;23.406;2022-07-05T12:33:45;8.20;;;6.47;;
3427;SDS011;1727;42.624;23.406;2022-07-05T12:36:12;8.00;;;7.30;;
3427;SDS011;1727;42.624;23.406;2022-07-05T12:38:40;7.90;;;7.10;;
3427;SDS011;1727;42.624;23.406;2022-07-05T12:41:08;10.27;;;7.10;;
3427;SDS011;1727;42.624;23.406;2022-07-05T12:43:49;7.70;;;7.00;;
3427;SDS011;1727;42.624;23.406;2022-07-05T12:46:17;9.50;;;7.63;;
3427;SDS011;1727;42.624;23.406;2022-07-05T12:48:50;8.20;;;7.20;;
3427;SDS011;1727;42.624;23.406;2022-07-05T12:51:31;8.53;;;7.73;;
3427;SDS011;1727;42.624;23.406;2022-07-05T12:53:59;8.80;;;8.00;;
3427;SDS011;1727;42.624;23.406;2022-07-05T12:56:47;10.20;;;7.27;;
3427;SDS011;1727;42.624;23.406;2022-07-05T12:59:33;7.90;;;7.20;;
3427;SDS011;1727;42.624;23.406;2022-07-05T13:02:00;9.13;;;7.27;;
3427;SDS011;1727;42.624;23.406;2022-07-05T13:04:27;7.13;;;6.50;;
3427;SDS011;1727;42.624;23.406;2022-07-05T13:06:56;8.43;;;7.67;;
3427;SDS011;1727;42.624;23.406;2022-07-05T13:09:34;7.70;;;7.00;;
3427;SDS011;1727;42.624;23.406;2022-07-05T13:12:05;8.30;;;7.60;;
3427;SDS011;1727;42.624;23.406;2022-07-05T13:14:35;9.33;;;6.60;;
3427;SDS011;1727;42.624;23.406;2022-07-05T13:17:04;11.63;;;6.77;;
3427;SDS011;1727;42.624;23.406;2022-07-05T13:19:31;8.30;;;7.43;;
3427;SDS011;1727;42.624;23.406;2022-07-05T13:21:58;7.90;;;7.13;;
3427;SDS011;1727;42.624;23.406;2022-07-05T13:24:25;8.53;;;6.53;;
3427;SDS011;1727;42.624;23.406;2022-07-05T13:26:52;11.17;;;7.83;;
3427;SDS011;1727;42.624;23.406;2022-07-05T13:29:19;7.47;;;6.87;;
3427;SDS011;1727;42.624;23.406;2022-07-05T13:31:48;7.90;;;7.20;;
3427;SDS011;1727;42.624;23.406;2022-07-05T13:34:15;8.20;;;7.47;;
3427;SDS011;1727;42.624;23.406;2022-07-05T13:36:42;8.33;;;7.50;;
3427;SDS011;1727;42.624;23.406;2022-07-05T13:39:09;11.53;;;8.13;;
3427;SDS011;1727;42.624;23.406;2022-07-05T13:41:36;13.70;;;7.70;;
3427;SDS011;1727;42.624;23.406;2022-07-05T13:44:04;9.73;;;7.73;;
3427;SDS011;1727;42.624;23.406;2022-07-05T13:46:31;13.60;;;7.87;;
3427;SDS011;1727;42.624;23.406;2022-07-05T13:48:59;7.47;;;6.77;;
3427;SDS011;1727;42.624;23.406;2022-07-05T13:51:26;10.13;;;7.40;;
3427;SDS011;1727;42.624;23.406;2022-07-05T13:53:53;7.73;;;7.10;;
3427;SDS011;1727;42.624;23.406;2022-07-05T13:56:20;7.90;;;7.10;;
3427;SDS011;1727;42.624;23.406;2022-07-05T13:58:47;7.33;;;6.73;;
3427;SDS011;1727;42.624;23.406;2022-07-05T14:01:15;13.20;;;6.93;;
3427;SDS011;1727;42.624;23.406;2022-07-05T14:03:42;7.80;;;7.00;;
3427;SDS011;1727;42.624;23.406;2022-07-05T14:06:11;7.90;;;7.00;;
3427;SDS011;1727;42.624;23.406;2022-07-05T14:08:37;10.00;;;6.97;;
3427;SDS011;1727;42.624;23.406;2022-07-05T14:11:07;12.77;;;7.03;;
3427;SDS011;1727;42.624;23.406;2022-07-05T14:13:35;9.30;;;6.73;;
3427;SDS011;1727;42.624;23.406;2022-07-05T14:16:02;8.00;;;7.20;;
3427;SDS011;1727;42.624;23.406;2022-07-05T14:18:29;8.57;;;7.37;;
3427;SDS011;1727;42.624;23.406;2022-07-05T14:20:56;10.33;;;6.90;;
3427;SDS011;1727;42.624;23.406;2022-07-05T14:23:24;9.53;;;7.47;;
3427;SDS011;1727;42.624;23.406;2022-07-05T14:25:51;7.80;;;7.10;;
3427;SDS011;1727;42.624;23.406;2022-07-05T14:28:19;8.30;;;7.50;;
3427;SDS011;1727;42.624;23.406;2022-07-05T14:30:46;8.10;;;7.30;;
3427;SDS011;1727;42.624;23.406;2022-07-05T14:33:13;8.53;;;7.80;;
3427;SDS011;1727;42.624;23.406;2022-07-05T14:35:40;6.40;;;5.83;;
3427;SDS011;1727;42.624;23.406;2022-07-05T14:38:08;18.97;;;7.10;;
3427;SDS011;1727;42.624;23.406;2022-07-05T14:40:36;10.40;;;6.93;;
3427;SDS011;1727;42.624;23.406;2022-07-05T14:43:03;7.07;;;6.57;;
3427;SDS011;1727;42.624;23.406;2022-07-05T14:45:30;8.13;;;7.43;;
3427;SDS011;1727;42.624;23.406;2022-07-05T14:47:57;8.57;;;6.30;;
3427;SDS011;1727;42.624;23.406;2022-07-05T14:50:24;8.30;;;7.40;;
3427;SDS011;1727;42.624;23.406;2022-07-05T14:52:53;6.83;;;6.30;;
3427;SDS011;1727;42.624;23.406;2022-07-05T14:55:20;11.40;;;7.40;;
3427;SDS011;1727;42.624;23.406;2022-07-05T14:57:51;8.27;;;7.53;;
3427;SDS011;1727;42.624;23.406;2022-07-05T15:07:01;10.17;;;6.97;;
3427;SDS011;1727;42.624;23.406;2022-07-05T15:09:28;8.03;;;7.07;;
3427;SDS011;1727;42.624;23.406;2022-07-05T15:11:55;6.73;;;6.13;;
3427;SDS011;1727;42.624;23.406;2022-07-05T15:14:24;8.87;;;7.20;;
3427;SDS011;1727;42.624;23.406;2022-07-05T15:16:52;15.07;;;7.50;;
3427;SDS011;1727;42.624;23.406;2022-07-05T15:19:19;19.60;;;11.30;;
3427;SDS011;1727;42.624;23.406;2022-07-05T15:21:47;8.30;;;7.23;;
3427;SDS011;1727;42.624;23.406;2022-07-05T15:24:14;9.20;;;8.27;;
3427;SDS011;1727;42.624;23.406;2022-07-05T15:26:42;7.63;;;6.73;;
3427;SDS011;1727;42.624;23.406;2022-07-05T15:29:09;13.13;;;8.30;;
3427;SDS011;1727;42.624;23.406;2022-07-05T15:34:59;25.83;;;7.27;;
3427;SDS011;1727;42.624;23.406;2022-07-05T15:37:26;10.90;;;7.47;;
3427;SDS011;1727;42.624;23.406;2022-07-05T15:39:53;8.77;;;7.97;;
3427;SDS011;1727;42.624;23.406;2022-07-05T15:42:23;8.67;;;7.47;;
3427;SDS011;1727;42.624;23.406;2022-07-05T15:51:34;7.90;;;7.00;;
3427;SDS011;1727;42.624;23.406;2022-07-05T15:54:02;8.37;;;6.93;;
3427;SDS011;1727;42.624;23.406;2022-07-05T15:56:29;8.23;;;7.53;;